Fredonia, Wisconsin
Current Conditions -  °F | °C
As of 3:50 PM on Monday 22 Dec 2014 (Local Time) from KETB Reporting Station
Light Snow Light Snow  
Wind Chill: 25°   Ceiling: 400
Heat Index: 32°   Visibility: 1.5mi
Dew Point: 32°   Wind: 8mph
Humidity: 100%   Direction: 100°E
Pressure: 29.75"   Gusts: NA
Location:  43.47°N, 87.95°W
Report Text: KETB 222150Z AUTO 10007KT 1 1/2SM -SN OVC004 00/00 A2975 RMK AO2 P0001
Loading
Personal Weather Stations






























Interactive Weather Map New forecast layout! Learn more

10-Day Weather Forecast

Advertisements
Track Severe Weather on mobile